Time;durP1;ratioP1;P1;durP2;ratioP2;P2;SDS_P1;SDS_P2;PMS_P1;PMS_P2;Temp;Humidity;BMP_temperature;BMP_pressure;BME280_temperature;BME280_humidity;BME280_pressure;Samples;Min_cycle;Max_cycle;Signal;HPM_P1;HPM_P2
2022/08/31 00:04:01;;;;;;;6.50;4.33;;;22.90;71.50;;;;;;5066817;28;20487;-77
2022/08/31 00:06:29;;;;;;;4.47;4.07;;;23.00;71.90;;;;;;5062577;28;20947;-78
2022/08/31 00:08:55;;;;;;;5.50;5.00;;;23.30;70.90;;;;;;5067676;28;20466;-77
2022/08/31 00:11:27;;;;;;;5.03;4.03;;;23.20;70.50;;;;;;5067775;28;20458;-78
2022/08/31 00:13:58;;;;;;;5.10;4.60;;;23.20;70.60;;;;;;5068024;28;20929;-77
2022/08/31 00:16:25;;;;;;;4.83;4.43;;;23.20;71.50;;;;;;5059796;28;20468;-78
2022/08/31 00:18:51;;;;;;;5.07;4.67;;;23.20;71.50;;;;;;5066163;28;20538;-78
2022/08/31 00:21:19;;;;;;;4.67;4.00;;;23.30;71.80;;;;;;5066212;28;20982;-77
2022/08/31 00:23:44;;;;;;;5.07;4.67;;;23.60;72.40;;;;;;5068655;28;20900;-78
2022/08/31 00:26:10;;;;;;;4.97;4.57;;;23.20;72.20;;;;;;5068931;28;20434;-77
2022/08/31 00:28:35;;;;;;;4.80;4.40;;;24.10;74.60;;;;;;5070808;28;20213;-78
2022/08/31 00:31:01;;;;;;;5.57;4.93;;;23.10;79.30;;;;;;5071799;28;20201;-78
2022/08/31 00:33:26;;;;;;;5.33;4.83;;;23.00;81.80;;;;;;5070658;28;20222;-78
2022/08/31 00:35:52;;;;;;;4.80;4.40;;;22.80;85.20;;;;;;5070685;28;20251;-77
2022/08/31 00:38:18;;;;;;;5.43;4.90;;;22.80;82.60;;;;;;5070076;28;20197;-78
2022/08/31 00:40:47;;;;;;;5.53;5.03;;;22.60;86.30;;;;;;5070160;28;20279;-77
2022/08/31 00:43:52;;;;;;;5.47;4.93;;;22.40;89.10;;;;;;5070491;28;20653;-78
2022/08/31 00:46:27;;;;;;;7.80;4.80;;;22.30;90.10;;;;;;5064586;28;20451;-78
2022/08/31 00:49:08;;;;;;;5.40;4.90;;;22.10;85.90;;;;;;5069497;28;20458;-78
2022/08/31 00:51:46;;;;;;;5.90;5.30;;;22.20;89.10;;;;;;5066805;28;20552;-77
2022/08/31 00:54:15;;;;;;;6.67;4.47;;;22.00;89.00;;;;;;5071331;28;20439;-77
2022/08/31 00:56:43;;;;;;;6.27;5.67;;;21.90;90.40;;;;;;5068515;28;20435;-77
2022/08/31 00:59:11;;;;;;;6.50;5.50;;;22.40;91.60;;;;;;5067301;28;20466;-77
2022/08/31 01:01:37;;;;;;;8.97;5.43;;;22.20;91.50;;;;;;5067270;28;20441;-77
2022/08/31 01:04:03;;;;;;;10.17;6.60;;;22.10;92.60;;;;;;5071154;28;20492;-78
2022/08/31 01:06:29;;;;;;;9.50;7.68;;;21.50;94.60;;;;;;5070892;28;20238;-77
2022/08/31 01:08:57;;;;;;;14.33;8.60;;;21.40;98.60;;;;;;5064302;28;20684;-77
2022/08/31 01:11:23;;;;;;;11.90;7.63;;;21.40;99.90;;;;;;5071248;28;20463;-77
2022/08/31 01:13:48;;;;;;;15.10;9.97;;;20.80;99.90;;;;;;5059591;28;20241;-78
2022/08/31 01:16:21;;;;;;;13.27;9.27;;;20.50;99.90;;;;;;5061722;28;20286;-79
2022/08/31 01:18:48;;;;;;;8.93;7.40;;;20.20;99.90;;;;;;5063818;28;20548;-78
2022/08/31 01:21:22;;;;;;;9.98;7.25;;;20.00;99.90;;;;;;5067381;28;20189;-78
2022/08/31 01:23:48;;;;;;;7.93;7.03;;;19.40;99.90;;;;;;5062131;28;20188;-79
2022/08/31 01:26:17;;;;;;;10.00;7.90;;;19.90;99.90;;;;;;5065601;28;20184;-78
2022/08/31 01:28:43;;;;;;;8.65;7.60;;;19.30;99.90;;;;;;5066669;28;20291;-79
2022/08/31 01:31:18;;;;;;;7.73;7.03;;;19.00;99.90;;;;;;5069268;28;20335;-79
2022/08/31 01:33:44;;;;;;;11.02;7.10;;;18.90;99.90;;;;;;5070159;28;20450;-78
2022/08/31 01:36:10;;;;;;;10.60;8.67;;;19.30;99.90;;;;;;5068545;28;20185;-79
2022/08/31 01:38:36;;;;;;;11.65;9.65;;;19.20;99.90;;;;;;5062836;28;20320;-78
2022/08/31 01:41:03;;;;;;;9.63;8.23;;;18.90;99.90;;;;;;5064743;28;20264;-78
2022/08/31 01:43:32;;;;;;;10.27;8.68;;;18.90;99.90;;;;;;5069045;28;20192;-78
2022/08/31 01:46:09;;;;;;;11.23;8.80;;;18.50;99.90;;;;;;5070210;28;20188;-78
2022/08/31 01:48:36;;;;;;;9.98;8.98;;;18.40;99.90;;;;;;5070713;28;20200;-78
2022/08/31 01:51:03;;;;;;;10.23;9.25;;;18.40;99.90;;;;;;5067942;28;20227;-78
2022/08/31 01:53:29;;;;;;;10.45;9.43;;;18.30;99.90;;;;;;5061311;28;20190;-78
2022/08/31 01:55:54;;;;;;;10.37;9.37;;;18.20;99.90;;;;;;5066350;28;20184;-78
2022/08/31 01:58:20;;;;;;;10.60;8.53;;;18.40;99.90;;;;;;5063436;28;20213;-79
2022/08/31 02:00:45;;;;;;;9.60;8.40;;;18.70;99.90;;;;;;5066583;28;20246;-78
2022/08/31 02:03:11;;;;;;;10.63;9.50;;;18.60;99.90;;;;;;5066560;28;20264;-79
2022/08/31 02:05:37;;;;;;;10.07;9.10;;;18.70;99.90;;;;;;5071054;28;20207;-79
2022/08/31 02:08:05;;;;;;;10.37;9.40;;;18.40;99.90;;;;;;5064276;28;20759;-79
2022/08/31 02:10:30;;;;;;;9.57;8.68;;;18.30;99.90;;;;;;5064449;28;20252;-79
2022/08/31 02:12:56;;;;;;;11.23;10.00;;;18.50;99.90;;;;;;5058648;28;20213;-78
2022/08/31 02:15:22;;;;;;;11.80;10.50;;;18.50;99.90;;;;;;5065435;28;20181;-78
2022/08/31 02:17:47;;;;;;;16.80;13.27;;;18.40;99.90;;;;;;5061439;28;20687;-79
2022/08/31 02:20:14;;;;;;;10.77;9.50;;;18.60;99.90;;;;;;5059386;28;20236;-78
2022/08/31 02:22:40;;;;;;;10.27;9.05;;;18.50;99.90;;;;;;5068712;28;20181;-78
2022/08/31 02:25:07;;;;;;;9.57;8.57;;;18.40;99.90;;;;;;5065246;28;20180;-79
2022/08/31 02:27:33;;;;;;;10.50;9.05;;;18.30;99.90;;;;;;5068370;28;20439;-78
2022/08/31 02:29:58;;;;;;;11.27;9.43;;;18.60;99.90;;;;;;5067873;28;20266;-78
2022/08/31 02:32:24;;;;;;;9.30;8.50;;;18.70;99.90;;;;;;5069104;28;20185;-78
2022/08/31 02:34:50;;;;;;;9.30;8.40;;;18.20;99.90;;;;;;5063654;28;20209;-78
2022/08/31 02:37:16;;;;;;;11.93;8.57;;;18.50;99.90;;;;;;5067972;28;20189;-78
2022/08/31 02:39:42;;;;;;;9.80;8.50;;;18.20;99.90;;;;;;5063508;28;20482;-79
2022/08/31 02:42:08;;;;;;;10.63;9.27;;;18.60;99.90;;;;;;5059347;28;20189;-79
2022/08/31 02:44:33;;;;;;;11.60;10.43;;;18.50;99.90;;;;;;5069361;28;20201;-78
2022/08/31 02:46:59;;;;;;;13.50;10.30;;;18.20;99.90;;;;;;5062107;28;20750;-78
2022/08/31 02:49:24;;;;;;;10.93;9.80;;;18.40;99.90;;;;;;5065800;28;20208;-78
2022/08/31 02:51:50;;;;;;;11.90;10.20;;;18.50;99.90;;;;;;5062041;28;20186;-79
2022/08/31 02:54:16;;;;;;;14.83;13.20;;;18.40;99.90;;;;;;5065544;28;20184;-78
2022/08/31 02:56:41;;;;;;;10.60;9.70;;;17.80;99.90;;;;;;5068746;28;20189;-78
2022/08/31 02:59:07;;;;;;;10.73;9.73;;;18.50;99.90;;;;;;5066392;28;20338;-78
2022/08/31 03:01:34;;;;;;;10.00;9.10;;;18.60;99.90;;;;;;5065006;28;20193;-79
2022/08/31 03:04:01;;;;;;;9.90;9.02;;;18.10;99.90;;;;;;5068401;28;20438;-79
2022/08/31 03:06:28;;;;;;;10.65;9.65;;;18.40;99.90;;;;;;5061266;28;20182;-78
2022/08/31 03:08:54;;;;;;;10.60;9.15;;;18.60;99.90;;;;;;5069505;28;20581;-78
2022/08/31 03:11:20;;;;;;;9.60;8.60;;;18.50;99.90;;;;;;5068872;28;20590;-78
2022/08/31 03:13:45;;;;;;;11.77;10.10;;;18.40;99.90;;;;;;5065898;28;20466;-78
2022/08/31 03:16:13;;;;;;;9.93;8.97;;;18.50;99.90;;;;;;5067751;28;20803;-78
2022/08/31 03:18:40;;;;;;;9.95;9.05;;;18.20;99.90;;;;;;5068392;28;20208;-78
2022/08/31 03:21:05;;;;;;;10.10;9.20;;;18.50;99.90;;;;;;5068195;28;20181;-78
2022/08/31 03:23:31;;;;;;;13.40;9.70;;;18.50;99.90;;;;;;5063639;28;20194;-78
2022/08/31 03:25:56;;;;;;;11.07;9.93;;;18.40;99.90;;;;;;5067343;28;20193;-78
2022/08/31 03:28:22;;;;;;;11.23;10.23;;;18.30;99.90;;;;;;5068697;28;20247;-78
2022/08/31 03:30:47;;;;;;;11.47;10.37;;;18.20;99.90;;;;;;5063715;28;20220;-78
2022/08/31 03:33:13;;;;;;;10.80;9.90;;;18.50;99.90;;;;;;5064053;28;20202;-78
2022/08/31 03:35:43;;;;;;;9.83;8.93;;;18.60;99.90;;;;;;5069654;28;20260;-78
2022/08/31 03:38:11;;;;;;;10.52;9.60;;;18.30;99.90;;;;;;5063132;28;20868;-78
2022/08/31 03:40:37;;;;;;;12.00;10.90;;;18.10;99.90;;;;;;5064310;28;20238;-79
2022/08/31 03:43:03;;;;;;;11.88;10.77;;;17.80;99.90;;;;;;5067843;28;20183;-78
2022/08/31 03:45:30;;;;;;;11.18;10.20;;;18.60;99.90;;;;;;5061141;28;20185;-78
2022/08/31 03:47:58;;;;;;;12.10;11.00;;;18.20;99.90;;;;;;5067138;28;20181;-78
2022/08/31 03:50:24;;;;;;;10.80;9.85;;;18.50;99.90;;;;;;5065011;28;20235;-78
2022/08/31 03:52:49;;;;;;;13.60;10.73;;;18.20;99.90;;;;;;5068535;28;20605;-78
2022/08/31 03:55:15;;;;;;;10.13;9.30;;;18.30;99.90;;;;;;5066782;28;20793;-78
2022/08/31 03:57:41;;;;;;;12.73;11.53;;;18.30;99.90;;;;;;5065343;28;20173;-78
2022/08/31 04:00:08;;;;;;;9.67;8.77;;;18.30;99.90;;;;;;5069203;28;20481;-79
2022/08/31 04:02:37;;;;;;;10.05;9.25;;;18.20;99.90;;;;;;5068659;28;20246;-78
2022/08/31 04:05:02;;;;;;;10.32;9.43;;;18.60;99.90;;;;;;5070016;28;20525;-78
2022/08/31 04:07:28;;;;;;;9.20;8.40;;;18.30;99.90;;;;;;5064746;28;20191;-79
2022/08/31 04:09:53;;;;;;;10.90;9.80;;;18.70;99.90;;;;;;5061925;28;20296;-79
2022/08/31 04:12:19;;;;;;;9.57;8.73;;;18.80;99.90;;;;;;5071965;28;20215;-79
2022/08/31 04:14:45;;;;;;;11.10;10.10;;;18.50;99.90;;;;;;5063486;28;20174;-79
2022/08/31 04:17:11;;;;;;;11.67;10.67;;;18.60;99.90;;;;;;5064036;28;20716;-77
2022/08/31 04:19:39;;;;;;;11.70;10.55;;;18.60;99.90;;;;;;5067964;28;20209;-78
2022/08/31 04:22:04;;;;;;;10.50;9.50;;;18.80;99.90;;;;;;5067556;28;20176;-78
2022/08/31 04:24:30;;;;;;;11.73;10.57;;;18.50;99.90;;;;;;5069456;28;20177;-78
2022/08/31 04:26:55;;;;;;;12.30;11.20;;;18.30;99.90;;;;;;5070383;28;20177;-78
2022/08/31 04:29:22;;;;;;;10.97;10.03;;;18.00;99.90;;;;;;5071948;28;20764;-78
2022/08/31 04:31:48;;;;;;;11.57;10.52;;;18.30;99.90;;;;;;5070629;28;20226;-78
2022/08/31 04:34:14;;;;;;;11.33;9.53;;;17.50;99.90;;;;;;5069794;28;20657;-78
2022/08/31 04:36:40;;;;;;;11.77;10.68;;;18.00;99.90;;;;;;5069379;28;20203;-77
2022/08/31 04:39:06;;;;;;;12.98;11.75;;;18.40;99.90;;;;;;5068078;28;20204;-79
2022/08/31 04:41:34;;;;;;;12.75;11.65;;;18.20;99.90;;;;;;5071692;28;20544;-78
2022/08/31 04:44:02;;;;;;;11.13;10.23;;;17.90;99.90;;;;;;5068775;28;20223;-79
2022/08/31 04:46:29;;;;;;;11.77;10.73;;;18.00;99.90;;;;;;5066572;28;20671;-78
2022/08/31 04:48:56;;;;;;;9.63;8.82;;;18.00;99.90;;;;;;5065305;28;20219;-78
2022/08/31 04:51:24;;;;;;;13.18;9.27;;;18.50;99.90;;;;;;5069621;28;20297;-77
2022/08/31 04:53:51;;;;;;;10.02;9.13;;;18.40;99.90;;;;;;5063543;28;20169;-78
2022/08/31 04:56:30;;;;;;;11.13;10.13;;;18.00;99.90;;;;;;5065592;28;20235;-77
2022/08/31 04:58:58;;;;;;;10.55;9.60;;;18.00;99.90;;;;;;5060229;28;20329;-77
2022/08/31 05:01:26;;;;;;;10.52;9.57;;;17.70;99.90;;;;;;5063710;28;20182;-77
2022/08/31 05:03:54;;;;;;;10.95;10.05;;;19.10;99.90;;;;;;5063022;28;20246;-77
2022/08/31 05:06:22;;;;;;;11.75;10.70;;;18.60;99.90;;;;;;5062899;28;20735;-82
2022/08/31 05:08:55;;;;;;;11.25;10.27;;;18.60;99.90;;;;;;5068588;28;20223;-82
2022/08/31 05:11:22;;;;;;;11.82;10.63;;;18.30;99.90;;;;;;5067060;28;20211;-89
2022/08/31 05:13:48;;;;;;;12.45;11.25;;;18.80;99.90;;;;;;5064450;28;20192;-84
2022/08/31 05:16:15;;;;;;;13.13;11.93;;;18.50;99.90;;;;;;5066948;28;20214;-83
2022/08/31 05:18:42;;;;;;;12.48;11.27;;;18.80;99.90;;;;;;5073431;28;20223;-83
2022/08/31 05:21:13;;;;;;;11.93;10.82;;;18.70;99.90;;;;;;5067045;28;20201;-84
2022/08/31 05:23:39;;;;;;;68.82;58.40;;;18.80;99.90;;;;;;5069040;28;20180;-83
2022/08/31 05:26:06;;;;;;;13.73;12.48;;;18.70;99.90;;;;;;5064710;28;20255;-83
2022/08/31 05:28:32;;;;;;;12.27;11.07;;;18.90;99.90;;;;;;5068367;28;20219;-83
2022/08/31 05:30:59;;;;;;;11.85;10.80;;;19.00;99.90;;;;;;5070955;28;20236;-83
2022/08/31 05:33:25;;;;;;;12.20;11.00;;;18.80;99.90;;;;;;5067401;28;20562;-83
2022/08/31 05:35:51;;;;;;;12.40;11.07;;;18.70;99.90;;;;;;5073065;28;20173;-83
2022/08/31 05:38:19;;;;;;;12.77;11.47;;;18.40;99.90;;;;;;5068723;28;20216;-82
2022/08/31 05:40:52;;;;;;;15.02;10.02;;;18.10;99.90;;;;;;5073104;28;20209;-83
2022/08/31 05:43:18;;;;;;;10.65;8.93;;;18.70;99.90;;;;;;5069831;28;20184;-83
2022/08/31 05:45:43;;;;;;;10.77;9.83;;;18.30;99.90;;;;;;5066634;28;20249;-83
2022/08/31 05:48:09;;;;;;;11.07;10.07;;;18.70;99.90;;;;;;5064127;28;20280;-82
2022/08/31 05:50:36;;;;;;;10.93;9.77;;;18.70;99.90;;;;;;5069919;28;20219;-83
2022/08/31 05:53:02;;;;;;;11.32;10.32;;;18.70;99.90;;;;;;5059228;28;20238;-83
2022/08/31 05:55:28;;;;;;;10.30;9.40;;;18.40;99.90;;;;;;5072388;28;20207;-84
2022/08/31 05:57:54;;;;;;;11.65;10.43;;;17.80;99.90;;;;;;5067157;28;20272;-83
2022/08/31 06:00:19;;;;;;;11.80;10.60;;;18.20;99.90;;;;;;5069847;28;20712;-84
2022/08/31 06:02:45;;;;;;;12.47;11.23;;;18.20;99.90;;;;;;5065815;28;20236;-82
2022/08/31 06:05:11;;;;;;;11.10;10.00;;;18.70;99.90;;;;;;5070613;28;20200;-83
2022/08/31 06:07:36;;;;;;;9.63;8.83;;;18.60;99.90;;;;;;5067716;28;20187;-83
2022/08/31 06:10:03;;;;;;;9.50;8.70;;;18.90;99.90;;;;;;5067430;28;20299;-83
2022/08/31 06:12:33;;;;;;;10.70;9.35;;;18.60;99.90;;;;;;5067724;28;20199;-83
2022/08/31 06:15:00;;;;;;;9.35;8.50;;;18.90;99.90;;;;;;5066684;28;20185;-83
2022/08/31 06:17:27;;;;;;;9.40;8.50;;;18.80;99.90;;;;;;5062011;28;20173;-83
2022/08/31 06:19:56;;;;;;;8.80;8.00;;;18.90;99.90;;;;;;5066063;28;20323;-83
2022/08/31 06:22:22;;;;;;;8.77;8.00;;;19.00;99.90;;;;;;5065152;28;20721;-83
2022/08/31 06:24:48;;;;;;;10.13;9.23;;;18.70;99.90;;;;;;5066944;28;20193;-83
2022/08/31 06:27:14;;;;;;;10.00;9.00;;;18.60;99.90;;;;;;5068715;28;20191;-83
2022/08/31 06:29:40;;;;;;;9.50;8.60;;;18.70;99.90;;;;;;5069909;28;20246;-83
2022/08/31 06:32:06;;;;;;;10.73;9.82;;;18.60;99.90;;;;;;5066336;28;20269;-83
2022/08/31 06:34:33;;;;;;;9.60;8.60;;;19.10;99.90;;;;;;5065877;28;20288;-83
2022/08/31 06:36:59;;;;;;;10.00;9.10;;;19.20;99.90;;;;;;5066760;28;20427;-84
2022/08/31 06:39:25;;;;;;;10.20;9.13;;;18.80;99.90;;;;;;5063103;28;20204;-83
2022/08/31 06:41:54;;;;;;;11.73;10.60;;;18.80;99.90;;;;;;5065171;28;20241;-84
2022/08/31 06:44:21;;;;;;;11.93;10.82;;;18.90;99.90;;;;;;5066033;28;20263;-82
2022/08/31 06:46:47;;;;;;;11.00;10.00;;;20.30;99.90;;;;;;5063679;28;20233;-82
2022/08/31 06:49:13;;;;;;;10.33;9.10;;;18.80;99.90;;;;;;5066586;28;20206;-83
2022/08/31 06:51:39;;;;;;;11.50;10.35;;;20.30;99.90;;;;;;5065794;28;20470;-82
2022/08/31 06:54:06;;;;;;;11.87;10.80;;;19.20;99.90;;;;;;5064492;28;20173;-82
2022/08/31 06:56:34;;;;;;;13.07;11.88;;;19.20;99.90;;;;;;5061474;28;20561;-81
2022/08/31 06:59:00;;;;;;;10.95;9.82;;;19.10;99.90;;;;;;5063033;28;20224;-84
2022/08/31 07:01:29;;;;;;;13.75;12.55;;;18.70;99.90;;;;;;5063972;28;20281;-83
2022/08/31 07:03:56;;;;;;;11.70;10.50;;;19.30;99.90;;;;;;5065229;28;20204;-83
2022/08/31 07:06:28;;;;;;;11.52;10.43;;;18.90;99.90;;;;;;5067080;28;20283;-83
2022/08/31 07:08:57;;;;;;;11.13;9.75;;;18.70;99.90;;;;;;5063499;28;20672;-84
2022/08/31 07:11:26;;;;;;;10.75;9.85;;;18.60;99.90;;;;;;5066079;28;20577;-84
2022/08/31 07:13:53;;;;;;;11.55;10.48;;;18.90;99.90;;;;;;5062304;28;20721;-83
2022/08/31 07:16:21;;;;;;;10.77;9.77;;;18.80;99.90;;;;;;5070569;28;20197;-82
2022/08/31 07:18:48;;;;;;;12.75;11.63;;;18.80;99.90;;;;;;5068128;28;20192;-84
2022/08/31 07:21:26;;;;;;;12.05;10.85;;;18.70;99.90;;;;;;5063273;28;20283;-82
2022/08/31 07:23:53;;;;;;;10.30;9.40;;;19.00;99.90;;;;;;5066035;28;20243;-82
2022/08/31 07:26:26;;;;;;;14.60;13.30;;;18.90;99.90;;;;;;5064440;28;20193;-81
2022/08/31 07:28:53;;;;;;;11.55;10.45;;;18.40;99.90;;;;;;5067301;28;20641;-82
2022/08/31 07:31:21;;;;;;;11.35;10.35;;;19.00;99.90;;;;;;5064699;28;20984;-85
2022/08/31 07:33:52;;;;;;;11.40;10.20;;;19.00;99.90;;;;;;5059793;28;20177;-84
2022/08/31 07:36:17;;;;;;;9.68;8.73;;;19.30;99.90;;;;;;5068884;28;20180;-83
2022/08/31 07:44:33;;;;;;;10.65;9.65;;;19.50;99.90;;;;;;5025293;28;20261;-85
2022/08/31 07:47:01;;;;;;;10.68;9.57;;;18.80;99.90;;;;;;5045443;28;20243;-82
2022/08/31 07:49:27;;;;;;;10.70;9.65;;;19.70;99.90;;;;;;5067117;28;20211;-80
2022/08/31 07:51:54;;;;;;;10.00;9.00;;;19.60;99.90;;;;;;5067067;28;20216;-81
2022/08/31 07:54:24;;;;;;;9.82;8.93;;;19.60;99.90;;;;;;5064188;28;20180;-83
2022/08/31 07:57:02;;;;;;;10.05;9.15;;;19.30;99.90;;;;;;5066485;28;20272;-81
2022/08/31 07:59:29;;;;;;;10.23;9.30;;;20.00;99.90;;;;;;5066062;28;20735;-80
2022/08/31 08:01:55;;;;;;;11.77;9.65;;;19.50;99.90;;;;;;5064166;28;20296;-81
2022/08/31 08:04:24;;;;;;;10.77;9.10;;;19.50;99.90;;;;;;5062394;28;20185;-79
2022/08/31 08:06:54;;;;;;;10.15;9.27;;;19.60;99.90;;;;;;5066360;28;20435;-83
2022/08/31 08:09:26;;;;;;;10.88;9.85;;;19.20;99.90;;;;;;5062598;28;20237;-82
2022/08/31 08:11:57;;;;;;;10.45;9.38;;;19.10;99.90;;;;;;5065877;28;20250;-83
2022/08/31 08:14:26;;;;;;;10.38;9.32;;;19.60;99.90;;;;;;5057676;28;20185;-83
2022/08/31 08:16:53;;;;;;;10.30;9.40;;;19.50;99.90;;;;;;5062739;28;20418;-81
2022/08/31 08:19:19;;;;;;;10.15;8.73;;;19.60;99.90;;;;;;5065821;28;20636;-81
2022/08/31 08:21:47;;;;;;;10.47;9.47;;;19.60;99.90;;;;;;5060568;28;20206;-79
2022/08/31 08:24:14;;;;;;;10.35;9.35;;;19.60;99.90;;;;;;5063122;28;20632;-79
2022/08/31 08:26:48;;;;;;;10.90;10.00;;;19.30;99.90;;;;;;5063546;28;20275;-80
2022/08/31 08:29:15;;;;;;;10.35;9.45;;;19.30;99.90;;;;;;5065511;28;20243;-80
2022/08/31 08:31:41;;;;;;;10.32;9.43;;;20.00;99.90;;;;;;5065844;28;20213;-82
2022/08/31 08:34:07;;;;;;;10.75;9.75;;;19.00;99.90;;;;;;5057276;28;20264;-85
2022/08/31 08:36:35;;;;;;;10.80;9.73;;;19.50;99.90;;;;;;5067502;28;20637;-83
2022/08/31 08:39:04;;;;;;;10.00;9.13;;;19.60;99.90;;;;;;5066342;28;20455;-83
2022/08/31 08:41:32;;;;;;;9.95;9.05;;;19.40;99.90;;;;;;5067709;28;20184;-85
2022/08/31 08:44:00;;;;;;;10.77;9.77;;;19.90;99.90;;;;;;5068191;28;20281;-84
2022/08/31 08:46:31;;;;;;;12.70;9.90;;;19.80;99.90;;;;;;5060962;28;20192;-81
2022/08/31 08:49:02;;;;;;;9.85;9.05;;;20.00;99.90;;;;;;5061638;28;20212;-80
2022/08/31 08:51:37;;;;;;;10.82;9.85;;;20.00;99.90;;;;;;5060981;28;20217;-81
2022/08/31 08:54:09;;;;;;;10.75;9.75;;;19.70;99.90;;;;;;5059762;28;20276;-81
2022/08/31 08:56:45;;;;;;;11.75;10.65;;;19.50;99.90;;;;;;5061308;28;20213;-81
2022/08/31 08:59:12;;;;;;;11.20;10.18;;;19.80;99.90;;;;;;5064987;28;20201;-81
2022/08/31 09:01:38;;;;;;;11.57;10.48;;;19.90;99.90;;;;;;5069758;28;20230;-81
2022/08/31 09:04:32;;;;;;;10.65;9.55;;;20.00;99.90;;;;;;5062051;28;20193;-82
2022/08/31 09:07:19;;;;;;;10.90;9.82;;;19.50;99.90;;;;;;5060235;28;20181;-81
2022/08/31 09:10:04;;;;;;;10.30;9.38;;;19.70;99.90;;;;;;5058017;28;20236;-82
2022/08/31 09:12:47;;;;;;;10.15;9.25;;;19.50;99.90;;;;;;5066118;28;20604;-81
2022/08/31 09:15:38;;;;;;;10.73;9.55;;;19.90;99.90;;;;;;5061273;28;20716;-81
2022/08/31 09:18:18;;;;;;;11.88;10.80;;;19.70;99.90;;;;;;5079548;28;20253;-82
2022/08/31 09:21:04;;;;;;;10.48;9.57;;;19.60;99.90;;;;;;5068858;28;20247;-81
2022/08/31 09:23:35;;;;;;;10.70;9.63;;;19.90;99.90;;;;;;5066649;28;20188;-81
2022/08/31 09:26:03;;;;;;;12.50;10.38;;;20.10;99.90;;;;;;5064059;28;20601;-80
2022/08/31 09:28:51;;;;;;;12.57;11.48;;;20.70;99.90;;;;;;5068525;28;20222;-81
2022/08/31 09:31:39;;;;;;;11.02;10.00;;;20.50;99.90;;;;;;5064381;28;20224;-81
2022/08/31 09:34:13;;;;;;;12.05;10.95;;;20.90;99.90;;;;;;5066988;28;20234;-81
2022/08/31 09:36:42;;;;;;;10.98;10.00;;;20.40;99.90;;;;;;5068383;28;20223;-83
2022/08/31 09:39:21;;;;;;;11.80;10.70;;;20.80;99.90;;;;;;5069533;28;20298;-81
2022/08/31 09:41:48;;;;;;;11.48;10.40;;;20.40;99.90;;;;;;5067431;28;20189;-82
2022/08/31 09:44:23;;;;;;;13.07;11.98;;;20.60;99.90;;;;;;5064390;28;20189;-83
2022/08/31 09:46:52;;;;;;;11.43;10.27;;;20.50;99.90;;;;;;5064598;28;20216;-82
2022/08/31 09:49:26;;;;;;;12.45;11.35;;;20.50;99.90;;;;;;5061987;28;20204;-83
2022/08/31 09:52:12;;;;;;;11.65;10.43;;;20.50;99.90;;;;;;5069052;28;20703;-82
2022/08/31 09:57:48;;;;;;;11.60;10.60;;;20.90;99.90;;;;;;5067377;28;20188;-81
2022/08/31 10:00:15;;;;;;;12.95;11.70;;;20.80;99.90;;;;;;5062484;28;20196;-80
2022/08/31 10:02:42;;;;;;;12.55;11.20;;;20.70;99.90;;;;;;5066891;28;20209;-80
2022/08/31 10:05:30;;;;;;;12.15;11.05;;;20.60;99.90;;;;;;5063269;28;20177;-81
2022/08/31 10:08:05;;;;;;;12.88;11.05;;;20.60;99.90;;;;;;5064267;28;20372;-80
2022/08/31 10:10:38;;;;;;;11.82;10.73;;;20.60;99.90;;;;;;5066046;28;20220;-81
2022/08/31 10:13:20;;;;;;;12.65;11.45;;;20.60;99.90;;;;;;5065720;28;20221;-81
2022/08/31 10:15:58;;;;;;;11.88;10.55;;;20.70;99.90;;;;;;5059382;28;20177;-81
2022/08/31 10:18:38;;;;;;;11.10;9.70;;;20.80;99.90;;;;;;5061563;28;20211;-82
2022/08/31 10:21:22;;;;;;;10.32;9.27;;;21.00;99.90;;;;;;5066837;28;20185;-81
2022/08/31 10:24:35;;;;;;;10.77;9.77;;;21.00;99.90;;;;;;5059775;28;20256;-81
2022/08/31 10:27:15;;;;;;;10.98;9.98;;;21.00;99.90;;;;;;5066121;28;20268;-82
2022/08/31 10:29:59;;;;;;;11.95;9.82;;;21.20;99.90;;;;;;5063222;28;20484;-81
2022/08/31 10:32:36;;;;;;;10.18;9.13;;;21.10;99.90;;;;;;5054887;28;20736;-82
2022/08/31 10:35:36;;;;;;;10.82;9.85;;;21.00;99.90;;;;;;5063020;28;20176;-81
2022/08/31 10:38:25;;;;;;;10.05;9.05;;;21.20;99.90;;;;;;5061402;28;20173;-80
2022/08/31 10:40:59;;;;;;;11.95;10.75;;;21.20;99.90;;;;;;5065834;28;20189;-81
2022/08/31 10:43:33;;;;;;;10.97;10.07;;;21.60;99.90;;;;;;5062057;28;20185;-81
2022/08/31 10:46:02;;;;;;;10.47;9.50;;;21.70;99.90;;;;;;5061725;28;20484;-80
2022/08/31 10:48:27;;;;;;;10.73;9.57;;;21.60;99.90;;;;;;5064284;28;20454;-81
2022/08/31 10:51:04;;;;;;;10.23;9.40;;;22.40;99.90;;;;;;5063449;28;20560;-81
2022/08/31 10:53:54;;;;;;;8.77;7.97;;;22.20;99.90;;;;;;5064320;28;20214;-81
2022/08/31 10:56:34;;;;;;;12.32;8.50;;;21.60;99.90;;;;;;5062639;28;20474;-80
2022/08/31 10:59:07;;;;;;;9.20;8.13;;;21.50;99.90;;;;;;5062932;28;20200;-80
2022/08/31 11:01:45;;;;;;;10.13;9.23;;;21.70;99.90;;;;;;5063386;28;20473;-81
2022/08/31 11:04:26;;;;;;;9.55;8.75;;;20.90;99.90;;;;;;5069485;28;20422;-81
2022/08/31 11:07:11;;;;;;;9.82;8.90;;;21.30;99.90;;;;;;5060101;28;20637;-81
2022/08/31 11:09:42;;;;;;;11.38;9.35;;;21.30;99.90;;;;;;5067036;28;20220;-80
2022/08/31 11:12:14;;;;;;;13.15;8.00;;;21.30;99.90;;;;;;5068046;28;20545;-80
2022/08/31 11:15:16;;;;;;;9.80;8.93;;;21.60;99.90;;;;;;5060232;28;20613;-82
2022/08/31 11:18:10;;;;;;;10.10;9.20;;;21.40;99.90;;;;;;5065870;28;20758;-81
2022/08/31 11:21:01;;;;;;;11.60;9.43;;;21.20;99.90;;;;;;5059459;28;20189;-81
2022/08/31 11:23:47;;;;;;;10.07;9.10;;;21.70;99.90;;;;;;5062937;28;20193;-81
2022/08/31 11:26:34;;;;;;;9.98;8.82;;;21.00;99.90;;;;;;5062450;28;20212;-81
2022/08/31 11:29:08;;;;;;;9.32;8.43;;;21.00;99.90;;;;;;5067486;28;20217;-81
2022/08/31 11:31:35;;;;;;;9.82;9.02;;;20.80;99.90;;;;;;5068347;28;20208;-79
2022/08/31 11:34:24;;;;;;;10.55;9.40;;;20.80;99.90;;;;;;5064603;28;20221;-81
2022/08/31 11:36:51;;;;;;;9.02;8.15;;;20.90;99.90;;;;;;5066025;28;20710;-82
2022/08/31 11:39:29;;;;;;;8.85;7.95;;;20.90;99.90;;;;;;5067681;28;20196;-81
2022/08/31 11:41:57;;;;;;;10.35;9.45;;;20.90;99.90;;;;;;5064696;28;20269;-81
2022/08/31 11:44:29;;;;;;;9.32;8.48;;;20.80;99.90;;;;;;5063976;28;20181;-81
2022/08/31 11:47:28;;;;;;;10.30;9.50;;;20.40;99.90;;;;;;5061875;28;20265;-81
2022/08/31 11:50:01;;;;;;;10.40;9.15;;;20.80;99.90;;;;;;5059566;28;20696;-81
2022/08/31 11:52:42;;;;;;;10.15;9.25;;;20.90;99.90;;;;;;5062755;28;20267;-81
2022/08/31 11:55:19;;;;;;;9.88;8.95;;;20.80;99.90;;;;;;5064262;28;20268;-80
2022/08/31 11:58:06;;;;;;;12.27;11.05;;;20.90;99.90;;;;;;5067872;28;20771;-83
2022/08/31 12:00:48;;;;;;;9.52;8.80;;;20.80;99.90;;;;;;5065419;28;20185;-81
2022/08/31 12:03:49;;;;;;;10.82;9.93;;;20.90;99.90;;;;;;5066867;28;20271;-82
2022/08/31 12:06:26;;;;;;;9.57;8.70;;;20.90;99.90;;;;;;5063777;28;20181;-78
2022/08/31 12:09:10;;;;;;;10.50;9.57;;;20.90;99.90;;;;;;5063023;28;20205;-77
2022/08/31 12:11:53;;;;;;;12.50;10.45;;;20.80;99.90;;;;;;5064063;28;20707;-78
2022/08/31 12:14:28;;;;;;;10.40;9.40;;;20.70;99.90;;;;;;5065125;28;20212;-77
2022/08/31 12:17:24;;;;;;;10.25;9.30;;;20.30;99.90;;;;;;5066621;28;20180;-77
2022/08/31 12:20:06;;;;;;;9.90;8.98;;;20.90;99.90;;;;;;5067452;28;20204;-78
2022/08/31 12:25:41;;;;;;;10.38;9.45;;;21.60;99.90;;;;;;5070694;28;20231;-77
2022/08/31 12:28:42;;;;;;;12.50;11.20;;;21.50;99.90;;;;;;5062784;28;20280;-78
2022/08/31 12:31:13;;;;;;;9.35;8.55;;;21.40;99.90;;;;;;5059691;28;20263;-78
2022/08/31 12:33:54;;;;;;;9.30;8.40;;;21.70;99.90;;;;;;5065643;28;20177;-77
2022/08/31 12:36:26;;;;;;;10.38;8.90;;;21.50;99.90;;;;;;5061760;28;20184;-78
2022/08/31 12:39:11;;;;;;;10.38;8.60;;;21.60;99.90;;;;;;5064047;28;20565;-78
2022/08/31 12:41:42;;;;;;;9.00;8.23;;;21.80;99.90;;;;;;5068086;28;20188;-75
2022/08/31 12:44:07;;;;;;;10.47;9.40;;;22.00;99.90;;;;;;5067222;28;20520;-76
2022/08/31 12:47:02;;;;;;;9.33;8.53;;;22.50;99.90;;;;;;5070616;28;20491;-76
2022/08/31 12:49:51;;;;;;;10.57;9.27;;;22.20;99.90;;;;;;5062332;28;20704;-76
2022/08/31 12:52:45;;;;;;;11.73;8.77;;;22.20;99.90;;;;;;5067376;28;20518;-76
2022/08/31 12:55:36;;;;;;;10.07;9.07;;;22.30;99.90;;;;;;5068672;28;20526;-76
2022/08/31 12:58:14;;;;;;;10.00;9.00;;;22.30;99.90;;;;;;5068010;28;20543;-75
2022/08/31 13:00:42;;;;;;;9.90;8.90;;;22.20;99.90;;;;;;5067829;28;20470;-76
2022/08/31 13:03:22;;;;;;;9.13;8.27;;;22.30;99.90;;;;;;5062252;28;20434;-78
2022/08/31 13:06:09;;;;;;;9.80;8.93;;;22.50;99.60;;;;;;5068715;28;20441;-78
2022/08/31 13:08:42;;;;;;;11.07;8.90;;;22.70;99.80;;;;;;5066853;28;21000;-76
2022/08/31 13:11:29;;;;;;;14.63;10.03;;;22.80;99.20;;;;;;5062764;28;20455;-75